sensor_id;sensor_type;location;lat;lon;timestamp;P1;durP1;ratioP1;P2;durP2;ratioP2
16015;SDS011;8112;53.592;10.184;2023-01-28T00:01:28;2.73;;;2.30;;
16015;SDS011;8112;53.592;10.184;2023-01-28T00:06:31;1.90;;;1.70;;
16015;SDS011;8112;53.592;10.184;2023-01-28T00:11:32;2.47;;;1.93;;
16015;SDS011;8112;53.592;10.184;2023-01-28T00:16:34;3.43;;;1.90;;
16015;SDS011;8112;53.592;10.184;2023-01-28T00:21:37;2.47;;;1.80;;
16015;SDS011;8112;53.592;10.184;2023-01-28T00:26:39;2.43;;;2.23;;
16015;SDS011;8112;53.592;10.184;2023-01-28T00:31:42;2.93;;;2.20;;
16015;SDS011;8112;53.592;10.184;2023-01-28T00:36:45;3.70;;;2.40;;
16015;SDS011;8112;53.592;10.184;2023-01-28T00:41:56;2.40;;;2.00;;
16015;SDS011;8112;53.592;10.184;2023-01-28T00:46:58;3.07;;;2.70;;
16015;SDS011;8112;53.592;10.184;2023-01-28T00:52:01;3.23;;;2.43;;
16015;SDS011;8112;53.592;10.184;2023-01-28T00:57:03;2.27;;;2.07;;
16015;SDS011;8112;53.592;10.184;2023-01-28T01:02:04;3.47;;;2.20;;
16015;SDS011;8112;53.592;10.184;2023-01-28T01:07:13;2.07;;;1.90;;
16015;SDS011;8112;53.592;10.184;2023-01-28T01:12:15;2.13;;;1.93;;
16015;SDS011;8112;53.592;10.184;2023-01-28T01:17:17;3.23;;;1.80;;
16015;SDS011;8112;53.592;10.184;2023-01-28T01:22:20;2.00;;;1.80;;
16015;SDS011;8112;53.592;10.184;2023-01-28T01:27:22;2.60;;;2.40;;
16015;SDS011;8112;53.592;10.184;2023-01-28T01:32:28;3.33;;;2.33;;
16015;SDS011;8112;53.592;10.184;2023-01-28T01:37:31;2.50;;;2.30;;
16015;SDS011;8112;53.592;10.184;2023-01-28T01:42:33;2.90;;;2.00;;
16015;SDS011;8112;53.592;10.184;2023-01-28T01:47:37;3.80;;;2.50;;
16015;SDS011;8112;53.592;10.184;2023-01-28T01:52:45;3.10;;;1.93;;
16015;SDS011;8112;53.592;10.184;2023-01-28T01:57:51;1.93;;;1.80;;
16015;SDS011;8112;53.592;10.184;2023-01-28T02:02:57;2.80;;;2.50;;
16015;SDS011;8112;53.592;10.184;2023-01-28T02:08:00;3.30;;;2.40;;
16015;SDS011;8112;53.592;10.184;2023-01-28T02:13:18;3.60;;;2.50;;
16015;SDS011;8112;53.592;10.184;2023-01-28T02:18:22;2.67;;;2.40;;
16015;SDS011;8112;53.592;10.184;2023-01-28T02:23:33;3.77;;;2.27;;
16015;SDS011;8112;53.592;10.184;2023-01-28T02:28:50;3.33;;;2.77;;
16015;SDS011;8112;53.592;10.184;2023-01-28T02:33:55;2.77;;;2.07;;
16015;SDS011;8112;53.592;10.184;2023-01-28T02:39:05;2.90;;;2.43;;
16015;SDS011;8112;53.592;10.184;2023-01-28T02:44:16;3.77;;;2.90;;
16015;SDS011;8112;53.592;10.184;2023-01-28T02:49:19;3.40;;;2.50;;
16015;SDS011;8112;53.592;10.184;2023-01-28T02:54:28;2.53;;;2.33;;
16015;SDS011;8112;53.592;10.184;2023-01-28T02:59:40;3.67;;;2.67;;
16015;SDS011;8112;53.592;10.184;2023-01-28T03:04:51;3.27;;;2.50;;
16015;SDS011;8112;53.592;10.184;2023-01-28T03:09:59;5.73;;;2.70;;
16015;SDS011;8112;53.592;10.184;2023-01-28T03:15:07;3.87;;;2.70;;
16015;SDS011;8112;53.592;10.184;2023-01-28T03:20:33;3.80;;;2.70;;
16015;SDS011;8112;53.592;10.184;2023-01-28T03:25:58;4.83;;;2.80;;
16015;SDS011;8112;53.592;10.184;2023-01-28T03:31:22;2.90;;;2.70;;
16015;SDS011;8112;53.592;10.184;2023-01-28T03:36:45;3.67;;;2.90;;
16015;SDS011;8112;53.592;10.184;2023-01-28T03:42:06;3.07;;;2.80;;
16015;SDS011;8112;53.592;10.184;2023-01-28T03:47:19;4.33;;;2.93;;
16015;SDS011;8112;53.592;10.184;2023-01-28T03:52:24;3.17;;;2.80;;
16015;SDS011;8112;53.592;10.184;2023-01-28T03:57:40;2.57;;;2.37;;
16015;SDS011;8112;53.592;10.184;2023-01-28T04:02:46;3.83;;;2.33;;
16015;SDS011;8112;53.592;10.184;2023-01-28T04:07:53;4.07;;;3.43;;
16015;SDS011;8112;53.592;10.184;2023-01-28T04:13:27;3.47;;;2.57;;
16015;SDS011;8112;53.592;10.184;2023-01-28T04:18:30;3.50;;;3.07;;
16015;SDS011;8112;53.592;10.184;2023-01-28T04:23:32;4.57;;;2.40;;
16015;SDS011;8112;53.592;10.184;2023-01-28T04:28:34;4.30;;;2.57;;
16015;SDS011;8112;53.592;10.184;2023-01-28T04:33:37;3.10;;;2.43;;
16015;SDS011;8112;53.592;10.184;2023-01-28T04:38:58;2.30;;;2.20;;
16015;SDS011;8112;53.592;10.184;2023-01-28T04:44:22;2.50;;;2.10;;
16015;SDS011;8112;53.592;10.184;2023-01-28T04:49:58;2.87;;;2.33;;
16015;SDS011;8112;53.592;10.184;2023-01-28T04:55:16;2.37;;;2.20;;
16015;SDS011;8112;53.592;10.184;2023-01-28T05:00:21;3.40;;;2.33;;
16015;SDS011;8112;53.592;10.184;2023-01-28T05:05:26;3.27;;;2.67;;
16015;SDS011;8112;53.592;10.184;2023-01-28T05:10:31;3.03;;;2.70;;
16015;SDS011;8112;53.592;10.184;2023-01-28T05:15:33;2.87;;;2.40;;
16015;SDS011;8112;53.592;10.184;2023-01-28T05:20:36;3.93;;;2.93;;
16015;SDS011;8112;53.592;10.184;2023-01-28T05:25:38;3.30;;;3.00;;
16015;SDS011;8112;53.592;10.184;2023-01-28T05:30:40;3.20;;;2.90;;
16015;SDS011;8112;53.592;10.184;2023-01-28T05:35:43;3.57;;;3.23;;
16015;SDS011;8112;53.592;10.184;2023-01-28T05:40:45;4.37;;;3.20;;
16015;SDS011;8112;53.592;10.184;2023-01-28T05:45:47;4.77;;;3.40;;
16015;SDS011;8112;53.592;10.184;2023-01-28T05:51:17;3.33;;;3.00;;
16015;SDS011;8112;53.592;10.184;2023-01-28T05:56:26;3.57;;;3.27;;
16015;SDS011;8112;53.592;10.184;2023-01-28T06:01:28;5.00;;;3.87;;
16015;SDS011;8112;53.592;10.184;2023-01-28T06:06:31;3.77;;;3.37;;
16015;SDS011;8112;53.592;10.184;2023-01-28T06:11:35;4.27;;;3.63;;
16015;SDS011;8112;53.592;10.184;2023-01-28T06:16:38;4.83;;;3.90;;
16015;SDS011;8112;53.592;10.184;2023-01-28T06:22:00;4.40;;;3.60;;
16015;SDS011;8112;53.592;10.184;2023-01-28T06:27:02;3.77;;;3.43;;
16015;SDS011;8112;53.592;10.184;2023-01-28T06:32:04;4.70;;;4.20;;
16015;SDS011;8112;53.592;10.184;2023-01-28T06:37:07;4.40;;;3.80;;
16015;SDS011;8112;53.592;10.184;2023-01-28T06:42:09;5.57;;;4.30;;
16015;SDS011;8112;53.592;10.184;2023-01-28T06:47:10;5.77;;;4.40;;
16015;SDS011;8112;53.592;10.184;2023-01-28T06:52:15;4.83;;;4.33;;
16015;SDS011;8112;53.592;10.184;2023-01-28T06:57:17;5.33;;;4.20;;
16015;SDS011;8112;53.592;10.184;2023-01-28T07:02:19;5.83;;;3.97;;
16015;SDS011;8112;53.592;10.184;2023-01-28T07:07:22;5.50;;;4.30;;
16015;SDS011;8112;53.592;10.184;2023-01-28T07:12:24;4.70;;;4.17;;
16015;SDS011;8112;53.592;10.184;2023-01-28T07:17:26;4.93;;;4.10;;
16015;SDS011;8112;53.592;10.184;2023-01-28T07:22:29;5.47;;;4.80;;
16015;SDS011;8112;53.592;10.184;2023-01-28T07:27:30;4.67;;;4.27;;
16015;SDS011;8112;53.592;10.184;2023-01-28T07:32:32;5.40;;;4.60;;
16015;SDS011;8112;53.592;10.184;2023-01-28T07:37:35;7.83;;;5.70;;
16015;SDS011;8112;53.592;10.184;2023-01-28T07:42:37;8.93;;;7.67;;
16015;SDS011;8112;53.592;10.184;2023-01-28T07:47:39;9.20;;;7.33;;
16015;SDS011;8112;53.592;10.184;2023-01-28T07:52:42;10.60;;;7.20;;
16015;SDS011;8112;53.592;10.184;2023-01-28T07:57:48;10.07;;;7.83;;
16015;SDS011;8112;53.592;10.184;2023-01-28T08:02:54;9.37;;;8.13;;
16015;SDS011;8112;53.592;10.184;2023-01-28T08:07:58;10.43;;;8.00;;
16015;SDS011;8112;53.592;10.184;2023-01-28T08:12:59;10.13;;;7.97;;
16015;SDS011;8112;53.592;10.184;2023-01-28T08:18:01;9.53;;;8.53;;
16015;SDS011;8112;53.592;10.184;2023-01-28T08:23:06;9.67;;;8.30;;
16015;SDS011;8112;53.592;10.184;2023-01-28T08:28:09;9.63;;;8.60;;
16015;SDS011;8112;53.592;10.184;2023-01-28T08:33:13;10.00;;;8.40;;
16015;SDS011;8112;53.592;10.184;2023-01-28T08:38:17;14.50;;;10.03;;
16015;SDS011;8112;53.592;10.184;2023-01-28T08:43:19;12.43;;;10.07;;
16015;SDS011;8112;53.592;10.184;2023-01-28T08:48:21;14.90;;;10.63;;
16015;SDS011;8112;53.592;10.184;2023-01-28T08:53:24;13.00;;;10.37;;
16015;SDS011;8112;53.592;10.184;2023-01-28T08:58:26;11.43;;;9.80;;
16015;SDS011;8112;53.592;10.184;2023-01-28T09:03:27;12.37;;;9.73;;
16015;SDS011;8112;53.592;10.184;2023-01-28T09:08:30;14.83;;;10.13;;
16015;SDS011;8112;53.592;10.184;2023-01-28T09:13:32;13.27;;;9.40;;
16015;SDS011;8112;53.592;10.184;2023-01-28T09:18:34;12.57;;;10.33;;
16015;SDS011;8112;53.592;10.184;2023-01-28T09:23:37;14.00;;;10.27;;
16015;SDS011;8112;53.592;10.184;2023-01-28T09:28:39;11.17;;;9.67;;
16015;SDS011;8112;53.592;10.184;2023-01-28T09:33:40;11.57;;;10.23;;
16015;SDS011;8112;53.592;10.184;2023-01-28T09:38:43;11.00;;;8.97;;
16015;SDS011;8112;53.592;10.184;2023-01-28T09:43:48;11.63;;;8.93;;
16015;SDS011;8112;53.592;10.184;2023-01-28T09:49:23;12.00;;;9.77;;
16015;SDS011;8112;53.592;10.184;2023-01-28T09:54:37;9.97;;;8.97;;
16015;SDS011;8112;53.592;10.184;2023-01-28T09:59:45;9.93;;;8.43;;
16015;SDS011;8112;53.592;10.184;2023-01-28T10:04:49;10.60;;;8.60;;
16015;SDS011;8112;53.592;10.184;2023-01-28T10:10:01;10.87;;;9.53;;
16015;SDS011;8112;53.592;10.184;2023-01-28T10:15:09;16.63;;;8.77;;
16015;SDS011;8112;53.592;10.184;2023-01-28T10:20:24;8.70;;;7.47;;
16015;SDS011;8112;53.592;10.184;2023-01-28T10:25:33;10.77;;;8.50;;
16015;SDS011;8112;53.592;10.184;2023-01-28T10:30:35;8.73;;;7.93;;
16015;SDS011;8112;53.592;10.184;2023-01-28T10:35:40;10.37;;;8.50;;
16015;SDS011;8112;53.592;10.184;2023-01-28T10:40:44;9.30;;;7.77;;
16015;SDS011;8112;53.592;10.184;2023-01-28T10:45:50;8.97;;;7.67;;
16015;SDS011;8112;53.592;10.184;2023-01-28T10:50:57;8.83;;;7.63;;
16015;SDS011;8112;53.592;10.184;2023-01-28T10:56:02;13.67;;;7.90;;
16015;SDS011;8112;53.592;10.184;2023-01-28T11:01:06;11.00;;;8.00;;
16015;SDS011;8112;53.592;10.184;2023-01-28T11:06:16;10.27;;;8.03;;
16015;SDS011;8112;53.592;10.184;2023-01-28T11:11:27;8.63;;;7.73;;
16015;SDS011;8112;53.592;10.184;2023-01-28T11:16:29;9.67;;;7.50;;
16015;SDS011;8112;53.592;10.184;2023-01-28T11:21:31;8.20;;;7.07;;
16015;SDS011;8112;53.592;10.184;2023-01-28T11:26:37;8.87;;;6.93;;
16015;SDS011;8112;53.592;10.184;2023-01-28T11:31:40;8.97;;;8.07;;
16015;SDS011;8112;53.592;10.184;2023-01-28T11:36:48;7.97;;;7.13;;
16015;SDS011;8112;53.592;10.184;2023-01-28T11:41:52;10.07;;;7.60;;
16015;SDS011;8112;53.592;10.184;2023-01-28T11:47:01;8.37;;;6.23;;
16015;SDS011;8112;53.592;10.184;2023-01-28T11:52:16;7.57;;;6.80;;
16015;SDS011;8112;53.592;10.184;2023-01-28T11:57:24;7.47;;;6.63;;
16015;SDS011;8112;53.592;10.184;2023-01-28T12:02:34;7.23;;;6.40;;
16015;SDS011;8112;53.592;10.184;2023-01-28T12:07:55;7.40;;;6.70;;
16015;SDS011;8112;53.592;10.184;2023-01-28T12:13:08;9.60;;;7.77;;
16015;SDS011;8112;53.592;10.184;2023-01-28T12:18:40;9.50;;;7.50;;
16015;SDS011;8112;53.592;10.184;2023-01-28T12:24:07;10.70;;;7.57;;
16015;SDS011;8112;53.592;10.184;2023-01-28T12:29:23;8.87;;;7.40;;
16015;SDS011;8112;53.592;10.184;2023-01-28T12:40:07;10.00;;;7.17;;
16015;SDS011;8112;53.592;10.184;2023-01-28T12:45:22;9.33;;;7.07;;
16015;SDS011;8112;53.592;10.184;2023-01-28T12:50:28;9.20;;;7.27;;
16015;SDS011;8112;53.592;10.184;2023-01-28T12:55:35;10.00;;;7.80;;
16015;SDS011;8112;53.592;10.184;2023-01-28T13:00:44;13.33;;;8.17;;
16015;SDS011;8112;53.592;10.184;2023-01-28T13:05:51;7.70;;;6.90;;
16015;SDS011;8112;53.592;10.184;2023-01-28T13:11:00;9.17;;;6.77;;
16015;SDS011;8112;53.592;10.184;2023-01-28T13:16:06;8.30;;;6.97;;
16015;SDS011;8112;53.592;10.184;2023-01-28T13:21:11;9.30;;;7.47;;
16015;SDS011;8112;53.592;10.184;2023-01-28T13:26:29;9.67;;;7.87;;
16015;SDS011;8112;53.592;10.184;2023-01-28T13:31:39;11.53;;;8.67;;
16015;SDS011;8112;53.592;10.184;2023-01-28T13:36:43;7.63;;;6.83;;
16015;SDS011;8112;53.592;10.184;2023-01-28T13:41:47;8.83;;;7.57;;
16015;SDS011;8112;53.592;10.184;2023-01-28T13:46:52;9.63;;;7.93;;
16015;SDS011;8112;53.592;10.184;2023-01-28T13:51:57;8.17;;;7.30;;
16015;SDS011;8112;53.592;10.184;2023-01-28T13:57:09;8.47;;;7.63;;
16015;SDS011;8112;53.592;10.184;2023-01-28T14:08:20;13.20;;;9.70;;
16015;SDS011;8112;53.592;10.184;2023-01-28T14:13:44;11.87;;;9.37;;
16015;SDS011;8112;53.592;10.184;2023-01-28T14:19:08;11.83;;;9.83;;
16015;SDS011;8112;53.592;10.184;2023-01-28T14:24:15;11.90;;;10.03;;
16015;SDS011;8112;53.592;10.184;2023-01-28T14:34:49;13.37;;;10.27;;
16015;SDS011;8112;53.592;10.184;2023-01-28T14:39:51;14.73;;;11.23;;
16015;SDS011;8112;53.592;10.184;2023-01-28T14:45:00;16.03;;;11.70;;
16015;SDS011;8112;53.592;10.184;2023-01-28T14:50:21;14.60;;;11.03;;
16015;SDS011;8112;53.592;10.184;2023-01-28T14:55:33;14.30;;;10.60;;
16015;SDS011;8112;53.592;10.184;2023-01-28T15:00:50;14.80;;;10.60;;
16015;SDS011;8112;53.592;10.184;2023-01-28T15:06:02;14.60;;;9.87;;
16015;SDS011;8112;53.592;10.184;2023-01-28T15:11:05;14.73;;;11.73;;
16015;SDS011;8112;53.592;10.184;2023-01-28T15:16:12;16.80;;;11.57;;
16015;SDS011;8112;53.592;10.184;2023-01-28T15:21:20;13.57;;;10.60;;
16015;SDS011;8112;53.592;10.184;2023-01-28T15:26:23;14.53;;;10.73;;
16015;SDS011;8112;53.592;10.184;2023-01-28T15:31:27;16.47;;;11.97;;
16015;SDS011;8112;53.592;10.184;2023-01-28T15:36:31;15.63;;;10.43;;
16015;SDS011;8112;53.592;10.184;2023-01-28T15:41:34;12.70;;;9.67;;
16015;SDS011;8112;53.592;10.184;2023-01-28T15:46:41;15.87;;;11.77;;
16015;SDS011;8112;53.592;10.184;2023-01-28T15:51:48;18.07;;;12.03;;
16015;SDS011;8112;53.592;10.184;2023-01-28T15:56:51;15.13;;;11.23;;
16015;SDS011;8112;53.592;10.184;2023-01-28T16:02:06;16.67;;;11.17;;
16015;SDS011;8112;53.592;10.184;2023-01-28T16:07:20;17.07;;;10.80;;
16015;SDS011;8112;53.592;10.184;2023-01-28T16:12:22;16.20;;;11.17;;
16015;SDS011;8112;53.592;10.184;2023-01-28T16:17:26;16.70;;;12.03;;
16015;SDS011;8112;53.592;10.184;2023-01-28T16:22:33;17.40;;;11.27;;
16015;SDS011;8112;53.592;10.184;2023-01-28T16:27:36;17.40;;;11.37;;
16015;SDS011;8112;53.592;10.184;2023-01-28T16:32:38;15.60;;;11.47;;
16015;SDS011;8112;53.592;10.184;2023-01-28T16:37:43;15.77;;;11.60;;
16015;SDS011;8112;53.592;10.184;2023-01-28T16:42:44;17.37;;;12.17;;
16015;SDS011;8112;53.592;10.184;2023-01-28T16:47:47;18.17;;;12.07;;
16015;SDS011;8112;53.592;10.184;2023-01-28T16:52:51;18.83;;;12.07;;
16015;SDS011;8112;53.592;10.184;2023-01-28T16:57:55;16.80;;;12.23;;
16015;SDS011;8112;53.592;10.184;2023-01-28T17:02:57;19.10;;;12.07;;
16015;SDS011;8112;53.592;10.184;2023-01-28T17:08:00;20.03;;;14.00;;
16015;SDS011;8112;53.592;10.184;2023-01-28T17:13:02;17.30;;;12.23;;
16015;SDS011;8112;53.592;10.184;2023-01-28T17:18:04;19.80;;;13.43;;
16015;SDS011;8112;53.592;10.184;2023-01-28T17:23:07;20.13;;;13.20;;
16015;SDS011;8112;53.592;10.184;2023-01-28T17:28:12;18.47;;;12.47;;
16015;SDS011;8112;53.592;10.184;2023-01-28T17:33:15;19.30;;;13.13;;
16015;SDS011;8112;53.592;10.184;2023-01-28T17:38:18;21.13;;;13.20;;
16015;SDS011;8112;53.592;10.184;2023-01-28T17:43:19;17.67;;;13.20;;
16015;SDS011;8112;53.592;10.184;2023-01-28T17:48:21;19.80;;;13.27;;
16015;SDS011;8112;53.592;10.184;2023-01-28T17:53:24;23.00;;;13.07;;
16015;SDS011;8112;53.592;10.184;2023-01-28T17:58:26;22.00;;;14.03;;
16015;SDS011;8112;53.592;10.184;2023-01-28T18:03:28;20.33;;;13.93;;
16015;SDS011;8112;53.592;10.184;2023-01-28T18:08:31;18.50;;;13.37;;
16015;SDS011;8112;53.592;10.184;2023-01-28T18:13:33;20.53;;;13.40;;
16015;SDS011;8112;53.592;10.184;2023-01-28T18:18:36;19.30;;;13.57;;
16015;SDS011;8112;53.592;10.184;2023-01-28T18:23:39;23.07;;;14.70;;
16015;SDS011;8112;53.592;10.184;2023-01-28T18:28:41;19.87;;;13.23;;
16015;SDS011;8112;53.592;10.184;2023-01-28T18:33:42;21.17;;;13.60;;
16015;SDS011;8112;53.592;10.184;2023-01-28T18:38:45;21.80;;;14.13;;
16015;SDS011;8112;53.592;10.184;2023-01-28T18:43:47;20.03;;;14.47;;
16015;SDS011;8112;53.592;10.184;2023-01-28T18:48:49;18.63;;;12.90;;
16015;SDS011;8112;53.592;10.184;2023-01-28T18:53:54;22.77;;;14.57;;
16015;SDS011;8112;53.592;10.184;2023-01-28T18:58:56;18.30;;;12.90;;
16015;SDS011;8112;53.592;10.184;2023-01-28T19:03:59;20.33;;;13.23;;
16015;SDS011;8112;53.592;10.184;2023-01-28T19:09:04;20.07;;;13.67;;
16015;SDS011;8112;53.592;10.184;2023-01-28T19:14:06;20.47;;;14.20;;
16015;SDS011;8112;53.592;10.184;2023-01-28T19:19:09;17.83;;;12.97;;
16015;SDS011;8112;53.592;10.184;2023-01-28T19:24:12;21.43;;;15.13;;
16015;SDS011;8112;53.592;10.184;2023-01-28T19:29:14;17.07;;;12.63;;
16015;SDS011;8112;53.592;10.184;2023-01-28T19:34:15;25.27;;;14.00;;
16015;SDS011;8112;53.592;10.184;2023-01-28T19:39:18;23.40;;;14.67;;
16015;SDS011;8112;53.592;10.184;2023-01-28T19:44:20;20.27;;;13.77;;
16015;SDS011;8112;53.592;10.184;2023-01-28T19:49:22;20.60;;;14.53;;
16015;SDS011;8112;53.592;10.184;2023-01-28T19:54:25;21.50;;;14.30;;
16015;SDS011;8112;53.592;10.184;2023-01-28T19:59:27;18.60;;;13.40;;
16015;SDS011;8112;53.592;10.184;2023-01-28T20:04:28;20.10;;;14.37;;
16015;SDS011;8112;53.592;10.184;2023-01-28T20:09:32;21.07;;;13.10;;
16015;SDS011;8112;53.592;10.184;2023-01-28T20:14:33;20.57;;;13.67;;
16015;SDS011;8112;53.592;10.184;2023-01-28T20:19:35;20.90;;;13.80;;
16015;SDS011;8112;53.592;10.184;2023-01-28T20:24:38;22.33;;;15.43;;
16015;SDS011;8112;53.592;10.184;2023-01-28T20:29:40;21.73;;;14.93;;
16015;SDS011;8112;53.592;10.184;2023-01-28T20:34:42;22.60;;;15.13;;
16015;SDS011;8112;53.592;10.184;2023-01-28T20:39:45;20.37;;;14.27;;
16015;SDS011;8112;53.592;10.184;2023-01-28T20:44:46;22.57;;;14.77;;
16015;SDS011;8112;53.592;10.184;2023-01-28T20:49:48;19.63;;;14.00;;
16015;SDS011;8112;53.592;10.184;2023-01-28T20:54:51;23.90;;;15.03;;
16015;SDS011;8112;53.592;10.184;2023-01-28T20:59:52;24.23;;;15.67;;
16015;SDS011;8112;53.592;10.184;2023-01-28T21:04:54;25.20;;;15.80;;
16015;SDS011;8112;53.592;10.184;2023-01-28T21:09:57;22.50;;;15.37;;
16015;SDS011;8112;53.592;10.184;2023-01-28T21:14:59;23.70;;;15.87;;
16015;SDS011;8112;53.592;10.184;2023-01-28T21:20:00;25.53;;;16.13;;
16015;SDS011;8112;53.592;10.184;2023-01-28T21:25:05;24.73;;;15.80;;
16015;SDS011;8112;53.592;10.184;2023-01-28T21:30:08;23.43;;;15.37;;
16015;SDS011;8112;53.592;10.184;2023-01-28T21:35:12;23.00;;;15.43;;
16015;SDS011;8112;53.592;10.184;2023-01-28T21:40:15;22.90;;;15.80;;
16015;SDS011;8112;53.592;10.184;2023-01-28T21:45:17;25.03;;;16.47;;
16015;SDS011;8112;53.592;10.184;2023-01-28T21:50:19;24.03;;;16.07;;
16015;SDS011;8112;53.592;10.184;2023-01-28T21:55:22;24.47;;;16.10;;
16015;SDS011;8112;53.592;10.184;2023-01-28T22:00:23;22.83;;;15.53;;
16015;SDS011;8112;53.592;10.184;2023-01-28T22:05:25;21.53;;;15.53;;
16015;SDS011;8112;53.592;10.184;2023-01-28T22:10:28;23.50;;;15.70;;
16015;SDS011;8112;53.592;10.184;2023-01-28T22:15:31;23.77;;;16.03;;
16015;SDS011;8112;53.592;10.184;2023-01-28T22:20:32;22.60;;;16.30;;
16015;SDS011;8112;53.592;10.184;2023-01-28T22:25:35;26.03;;;17.30;;
16015;SDS011;8112;53.592;10.184;2023-01-28T22:30:37;26.00;;;16.80;;
16015;SDS011;8112;53.592;10.184;2023-01-28T22:35:39;27.07;;;17.07;;
16015;SDS011;8112;53.592;10.184;2023-01-28T22:40:42;23.37;;;16.93;;
16015;SDS011;8112;53.592;10.184;2023-01-28T22:45:43;22.63;;;17.20;;
16015;SDS011;8112;53.592;10.184;2023-01-28T22:50:45;24.10;;;17.47;;
16015;SDS011;8112;53.592;10.184;2023-01-28T22:55:50;24.77;;;17.60;;
16015;SDS011;8112;53.592;10.184;2023-01-28T23:00:51;25.13;;;16.97;;
16015;SDS011;8112;53.592;10.184;2023-01-28T23:05:56;25.57;;;17.27;;
16015;SDS011;8112;53.592;10.184;2023-01-28T23:11:01;25.30;;;17.07;;
16015;SDS011;8112;53.592;10.184;2023-01-28T23:16:03;23.67;;;16.10;;
16015;SDS011;8112;53.592;10.184;2023-01-28T23:21:23;21.97;;;15.67;;
16015;SDS011;8112;53.592;10.184;2023-01-28T23:26:47;25.43;;;16.43;;
16015;SDS011;8112;53.592;10.184;2023-01-28T23:31:50;23.00;;;15.93;;
16015;SDS011;8112;53.592;10.184;2023-01-28T23:36:54;24.03;;;16.10;;
16015;SDS011;8112;53.592;10.184;2023-01-28T23:41:57;24.03;;;16.03;;
16015;SDS011;8112;53.592;10.184;2023-01-28T23:46:58;24.93;;;16.80;;
16015;SDS011;8112;53.592;10.184;2023-01-28T23:52:00;21.73;;;16.80;;
16015;SDS011;8112;53.592;10.184;2023-01-28T23:57:04;25.23;;;17.37;;
